sensor_id;sensor_type;location;lat;lon;timestamp;P1;durP1;ratioP1;P2;durP2;ratioP2
21943;SDS011;11136;48.778;9.126;2022-08-21T00:00:51;3.17;;;1.38;;
21943;SDS011;11136;48.778;9.126;2022-08-21T00:03:17;2.78;;;1.95;;
21943;SDS011;11136;48.778;9.126;2022-08-21T00:05:44;4.75;;;1.60;;
21943;SDS011;11136;48.778;9.126;2022-08-21T00:08:13;3.38;;;1.70;;
21943;SDS011;11136;48.778;9.126;2022-08-21T00:10:39;3.47;;;1.88;;
21943;SDS011;11136;48.778;9.126;2022-08-21T00:13:06;4.13;;;2.17;;
21943;SDS011;11136;48.778;9.126;2022-08-21T00:15:34;4.03;;;1.92;;
21943;SDS011;11136;48.778;9.126;2022-08-21T00:18:01;2.50;;;1.70;;
21943;SDS011;11136;48.778;9.126;2022-08-21T00:20:26;3.13;;;1.73;;
21943;SDS011;11136;48.778;9.126;2022-08-21T00:22:52;3.83;;;2.10;;
21943;SDS011;11136;48.778;9.126;2022-08-21T00:25:19;3.33;;;1.77;;
21943;SDS011;11136;48.778;9.126;2022-08-21T00:27:46;3.47;;;2.08;;
21943;SDS011;11136;48.778;9.126;2022-08-21T00:30:20;5.03;;;1.75;;
21943;SDS011;11136;48.778;9.126;2022-08-21T00:32:47;4.88;;;1.75;;
21943;SDS011;11136;48.778;9.126;2022-08-21T00:35:14;2.63;;;1.83;;
21943;SDS011;11136;48.778;9.126;2022-08-21T00:37:42;2.50;;;1.50;;
21943;SDS011;11136;48.778;9.126;2022-08-21T00:40:09;3.65;;;1.48;;
21943;SDS011;11136;48.778;9.126;2022-08-21T00:42:40;4.60;;;1.67;;
21943;SDS011;11136;48.778;9.126;2022-08-21T00:45:06;3.63;;;1.83;;
21943;SDS011;11136;48.778;9.126;2022-08-21T00:47:33;2.53;;;1.65;;
21943;SDS011;11136;48.778;9.126;2022-08-21T00:49:58;4.70;;;1.95;;
21943;SDS011;11136;48.778;9.126;2022-08-21T00:52:26;4.07;;;1.90;;
21943;SDS011;11136;48.778;9.126;2022-08-21T00:54:55;4.30;;;1.88;;
21943;SDS011;11136;48.778;9.126;2022-08-21T00:57:27;5.00;;;1.67;;
21943;SDS011;11136;48.778;9.126;2022-08-21T00:59:58;3.58;;;1.67;;
21943;SDS011;11136;48.778;9.126;2022-08-21T01:02:27;6.30;;;1.98;;
21943;SDS011;11136;48.778;9.126;2022-08-21T01:04:52;4.70;;;1.92;;
21943;SDS011;11136;48.778;9.126;2022-08-21T01:07:18;6.78;;;1.70;;
21943;SDS011;11136;48.778;9.126;2022-08-21T01:09:45;2.72;;;1.88;;
21943;SDS011;11136;48.778;9.126;2022-08-21T01:12:11;5.60;;;1.95;;
21943;SDS011;11136;48.778;9.126;2022-08-21T01:14:38;3.92;;;1.90;;
21943;SDS011;11136;48.778;9.126;2022-08-21T01:17:05;3.88;;;1.85;;
21943;SDS011;11136;48.778;9.126;2022-08-21T01:19:31;7.15;;;2.45;;
21943;SDS011;11136;48.778;9.126;2022-08-21T01:21:57;2.80;;;1.67;;
21943;SDS011;11136;48.778;9.126;2022-08-21T01:24:24;3.22;;;1.75;;
21943;SDS011;11136;48.778;9.126;2022-08-21T01:26:51;5.30;;;1.90;;
21943;SDS011;11136;48.778;9.126;2022-08-21T01:29:26;5.65;;;1.73;;
21943;SDS011;11136;48.778;9.126;2022-08-21T01:31:55;3.13;;;1.80;;
21943;SDS011;11136;48.778;9.126;2022-08-21T01:34:20;1.67;;;1.48;;
21943;SDS011;11136;48.778;9.126;2022-08-21T01:36:46;4.53;;;1.73;;
21943;SDS011;11136;48.778;9.126;2022-08-21T01:39:13;6.05;;;1.98;;
21943;SDS011;11136;48.778;9.126;2022-08-21T01:41:39;5.68;;;1.55;;
21943;SDS011;11136;48.778;9.126;2022-08-21T01:44:05;3.17;;;1.70;;
21943;SDS011;11136;48.778;9.126;2022-08-21T01:46:32;3.17;;;1.80;;
21943;SDS011;11136;48.778;9.126;2022-08-21T01:48:57;3.28;;;2.05;;
21943;SDS011;11136;48.778;9.126;2022-08-21T01:51:23;2.58;;;1.75;;
21943;SDS011;11136;48.778;9.126;2022-08-21T01:53:49;2.80;;;2.10;;
21943;SDS011;11136;48.778;9.126;2022-08-21T01:56:15;5.68;;;2.25;;
21943;SDS011;11136;48.778;9.126;2022-08-21T01:58:42;3.47;;;2.08;;
21943;SDS011;11136;48.778;9.126;2022-08-21T02:01:10;2.35;;;1.52;;
21943;SDS011;11136;48.778;9.126;2022-08-21T02:03:36;3.80;;;2.13;;
21943;SDS011;11136;48.778;9.126;2022-08-21T02:06:02;2.10;;;1.73;;
21943;SDS011;11136;48.778;9.126;2022-08-21T02:08:29;6.13;;;1.85;;
21943;SDS011;11136;48.778;9.126;2022-08-21T02:10:55;3.67;;;2.00;;
21943;SDS011;11136;48.778;9.126;2022-08-21T02:13:20;6.10;;;1.70;;
21943;SDS011;11136;48.778;9.126;2022-08-21T02:15:46;3.42;;;1.73;;
21943;SDS011;11136;48.778;9.126;2022-08-21T02:18:12;3.70;;;1.90;;
21943;SDS011;11136;48.778;9.126;2022-08-21T02:20:39;2.60;;;1.77;;
21943;SDS011;11136;48.778;9.126;2022-08-21T02:23:08;4.03;;;2.22;;
21943;SDS011;11136;48.778;9.126;2022-08-21T02:25:34;4.70;;;1.70;;
21943;SDS011;11136;48.778;9.126;2022-08-21T02:28:03;4.32;;;1.70;;
21943;SDS011;11136;48.778;9.126;2022-08-21T02:30:36;5.03;;;2.22;;
21943;SDS011;11136;48.778;9.126;2022-08-21T02:33:05;3.03;;;1.88;;
21943;SDS011;11136;48.778;9.126;2022-08-21T02:35:31;5.35;;;2.10;;
21943;SDS011;11136;48.778;9.126;2022-08-21T02:37:58;2.50;;;1.80;;
21943;SDS011;11136;48.778;9.126;2022-08-21T02:40:27;4.55;;;1.90;;
21943;SDS011;11136;48.778;9.126;2022-08-21T02:42:55;3.28;;;1.95;;
21943;SDS011;11136;48.778;9.126;2022-08-21T02:45:21;3.80;;;2.00;;
21943;SDS011;11136;48.778;9.126;2022-08-21T02:47:48;3.03;;;1.60;;
21943;SDS011;11136;48.778;9.126;2022-08-21T02:50:17;4.70;;;1.48;;
21943;SDS011;11136;48.778;9.126;2022-08-21T02:52:46;2.67;;;1.92;;
21943;SDS011;11136;48.778;9.126;2022-08-21T02:55:11;3.90;;;2.45;;
21943;SDS011;11136;48.778;9.126;2022-08-21T02:57:37;7.85;;;2.58;;
21943;SDS011;11136;48.778;9.126;2022-08-21T03:00:03;3.78;;;1.85;;
21943;SDS011;11136;48.778;9.126;2022-08-21T03:02:29;6.00;;;2.10;;
21943;SDS011;11136;48.778;9.126;2022-08-21T03:04:55;3.25;;;2.10;;
21943;SDS011;11136;48.778;9.126;2022-08-21T03:07:20;2.72;;;1.63;;
21943;SDS011;11136;48.778;9.126;2022-08-21T03:09:46;4.70;;;1.92;;
21943;SDS011;11136;48.778;9.126;2022-08-21T03:12:12;5.38;;;2.38;;
21943;SDS011;11136;48.778;9.126;2022-08-21T03:14:37;5.20;;;1.83;;
21943;SDS011;11136;48.778;9.126;2022-08-21T03:17:03;6.05;;;2.28;;
21943;SDS011;11136;48.778;9.126;2022-08-21T03:19:29;6.95;;;1.98;;
21943;SDS011;11136;48.778;9.126;2022-08-21T03:21:55;4.75;;;2.05;;
21943;SDS011;11136;48.778;9.126;2022-08-21T03:24:20;5.88;;;1.98;;
21943;SDS011;11136;48.778;9.126;2022-08-21T03:26:46;3.92;;;2.03;;
21943;SDS011;11136;48.778;9.126;2022-08-21T03:29:11;4.20;;;1.98;;
21943;SDS011;11136;48.778;9.126;2022-08-21T03:31:37;3.67;;;1.80;;
21943;SDS011;11136;48.778;9.126;2022-08-21T03:34:03;4.38;;;2.50;;
21943;SDS011;11136;48.778;9.126;2022-08-21T03:36:28;4.45;;;2.15;;
21943;SDS011;11136;48.778;9.126;2022-08-21T03:38:54;4.93;;;2.10;;
21943;SDS011;11136;48.778;9.126;2022-08-21T03:41:20;6.18;;;2.10;;
21943;SDS011;11136;48.778;9.126;2022-08-21T03:43:46;4.10;;;2.50;;
21943;SDS011;11136;48.778;9.126;2022-08-21T03:46:12;4.70;;;2.40;;
21943;SDS011;11136;48.778;9.126;2022-08-21T03:48:38;5.00;;;2.13;;
21943;SDS011;11136;48.778;9.126;2022-08-21T03:51:04;5.43;;;2.38;;
21943;SDS011;11136;48.778;9.126;2022-08-21T03:53:31;4.20;;;1.90;;
21943;SDS011;11136;48.778;9.126;2022-08-21T03:55:57;2.67;;;1.80;;
21943;SDS011;11136;48.778;9.126;2022-08-21T03:58:24;5.72;;;2.45;;
21943;SDS011;11136;48.778;9.126;2022-08-21T04:00:51;5.07;;;2.17;;
21943;SDS011;11136;48.778;9.126;2022-08-21T04:03:20;5.93;;;2.13;;
21943;SDS011;11136;48.778;9.126;2022-08-21T04:05:46;4.70;;;2.13;;
21943;SDS011;11136;48.778;9.126;2022-08-21T04:08:12;5.10;;;2.22;;
21943;SDS011;11136;48.778;9.126;2022-08-21T04:10:40;2.85;;;1.92;;
21943;SDS011;11136;48.778;9.126;2022-08-21T04:13:06;4.05;;;1.90;;
21943;SDS011;11136;48.778;9.126;2022-08-21T04:15:33;3.85;;;2.03;;
21943;SDS011;11136;48.778;9.126;2022-08-21T04:17:59;4.68;;;2.17;;
21943;SDS011;11136;48.778;9.126;2022-08-21T04:20:25;5.38;;;2.45;;
21943;SDS011;11136;48.778;9.126;2022-08-21T04:22:51;5.47;;;2.28;;
21943;SDS011;11136;48.778;9.126;2022-08-21T04:25:17;4.60;;;1.80;;
21943;SDS011;11136;48.778;9.126;2022-08-21T04:27:44;4.30;;;2.22;;
21943;SDS011;11136;48.778;9.126;2022-08-21T04:30:11;4.90;;;2.60;;
21943;SDS011;11136;48.778;9.126;2022-08-21T04:32:38;4.32;;;2.25;;
21943;SDS011;11136;48.778;9.126;2022-08-21T04:35:08;4.85;;;2.60;;
21943;SDS011;11136;48.778;9.126;2022-08-21T04:37:35;4.40;;;2.25;;
21943;SDS011;11136;48.778;9.126;2022-08-21T04:40:02;3.92;;;2.25;;
21943;SDS011;11136;48.778;9.126;2022-08-21T04:42:29;5.75;;;2.90;;
21943;SDS011;11136;48.778;9.126;2022-08-21T04:44:55;4.93;;;2.45;;
21943;SDS011;11136;48.778;9.126;2022-08-21T04:47:21;4.18;;;2.13;;
21943;SDS011;11136;48.778;9.126;2022-08-21T04:49:47;4.32;;;2.20;;
21943;SDS011;11136;48.778;9.126;2022-08-21T04:52:13;3.88;;;2.30;;
21943;SDS011;11136;48.778;9.126;2022-08-21T04:54:42;4.80;;;2.45;;
21943;SDS011;11136;48.778;9.126;2022-08-21T04:57:10;5.47;;;2.38;;
21943;SDS011;11136;48.778;9.126;2022-08-21T04:59:38;4.80;;;2.63;;
21943;SDS011;11136;48.778;9.126;2022-08-21T05:02:07;4.68;;;2.58;;
21943;SDS011;11136;48.778;9.126;2022-08-21T05:04:34;5.00;;;2.38;;
21943;SDS011;11136;48.778;9.126;2022-08-21T05:07:04;5.05;;;2.70;;
21943;SDS011;11136;48.778;9.126;2022-08-21T05:09:32;5.07;;;2.17;;
21943;SDS011;11136;48.778;9.126;2022-08-21T05:12:00;7.38;;;2.40;;
21943;SDS011;11136;48.778;9.126;2022-08-21T05:14:27;4.47;;;2.10;;
21943;SDS011;11136;48.778;9.126;2022-08-21T05:16:52;5.72;;;2.20;;
21943;SDS011;11136;48.778;9.126;2022-08-21T05:19:18;4.35;;;2.20;;
21943;SDS011;11136;48.778;9.126;2022-08-21T05:21:44;3.90;;;2.22;;
21943;SDS011;11136;48.778;9.126;2022-08-21T05:24:12;4.55;;;2.30;;
21943;SDS011;11136;48.778;9.126;2022-08-21T05:26:39;4.63;;;2.10;;
21943;SDS011;11136;48.778;9.126;2022-08-21T05:29:05;3.17;;;1.95;;
21943;SDS011;11136;48.778;9.126;2022-08-21T05:31:31;3.88;;;2.55;;
21943;SDS011;11136;48.778;9.126;2022-08-21T05:33:56;4.70;;;2.10;;
21943;SDS011;11136;48.778;9.126;2022-08-21T05:36:22;4.25;;;2.55;;
21943;SDS011;11136;48.778;9.126;2022-08-21T05:38:48;4.40;;;2.13;;
21943;SDS011;11136;48.778;9.126;2022-08-21T05:41:13;5.10;;;2.00;;
21943;SDS011;11136;48.778;9.126;2022-08-21T05:43:39;3.00;;;2.58;;
21943;SDS011;11136;48.778;9.126;2022-08-21T05:46:06;4.72;;;2.20;;
21943;SDS011;11136;48.778;9.126;2022-08-21T05:48:33;5.50;;;2.42;;
21943;SDS011;11136;48.778;9.126;2022-08-21T05:51:04;5.05;;;2.22;;
21943;SDS011;11136;48.778;9.126;2022-08-21T05:53:31;4.35;;;2.50;;
21943;SDS011;11136;48.778;9.126;2022-08-21T05:55:57;7.28;;;3.00;;
21943;SDS011;11136;48.778;9.126;2022-08-21T05:58:22;4.97;;;2.42;;
21943;SDS011;11136;48.778;9.126;2022-08-21T06:00:48;5.00;;;2.20;;
21943;SDS011;11136;48.778;9.126;2022-08-21T06:03:17;4.10;;;2.28;;
21943;SDS011;11136;48.778;9.126;2022-08-21T06:06:03;5.70;;;2.80;;
21943;SDS011;11136;48.778;9.126;2022-08-21T06:08:29;4.45;;;2.05;;
21943;SDS011;11136;48.778;9.126;2022-08-21T06:10:55;3.08;;;2.13;;
21943;SDS011;11136;48.778;9.126;2022-08-21T06:13:23;4.03;;;2.22;;
21943;SDS011;11136;48.778;9.126;2022-08-21T06:15:49;3.13;;;2.05;;
21943;SDS011;11136;48.778;9.126;2022-08-21T06:18:15;2.67;;;2.40;;
21943;SDS011;11136;48.778;9.126;2022-08-21T06:20:41;3.13;;;2.13;;
21943;SDS011;11136;48.778;9.126;2022-08-21T06:23:09;4.85;;;2.60;;
21943;SDS011;11136;48.778;9.126;2022-08-21T06:25:34;3.83;;;2.00;;
21943;SDS011;11136;48.778;9.126;2022-08-21T06:28:01;8.88;;;2.65;;
21943;SDS011;11136;48.778;9.126;2022-08-21T06:30:28;5.43;;;2.35;;
21943;SDS011;11136;48.778;9.126;2022-08-21T06:32:54;4.75;;;2.83;;
21943;SDS011;11136;48.778;9.126;2022-08-21T06:35:19;11.02;;;2.58;;
21943;SDS011;11136;48.778;9.126;2022-08-21T06:37:45;4.28;;;2.08;;
21943;SDS011;11136;48.778;9.126;2022-08-21T06:40:11;6.65;;;3.00;;
21943;SDS011;11136;48.778;9.126;2022-08-21T06:42:37;7.07;;;2.95;;
21943;SDS011;11136;48.778;9.126;2022-08-21T06:45:03;10.25;;;3.00;;
21943;SDS011;11136;48.778;9.126;2022-08-21T06:47:29;4.82;;;2.50;;
21943;SDS011;11136;48.778;9.126;2022-08-21T06:49:54;7.32;;;2.88;;
21943;SDS011;11136;48.778;9.126;2022-08-21T06:52:20;8.98;;;3.58;;
21943;SDS011;11136;48.778;9.126;2022-08-21T06:54:46;9.55;;;3.17;;
21943;SDS011;11136;48.778;9.126;2022-08-21T06:57:11;5.55;;;2.63;;
21943;SDS011;11136;48.778;9.126;2022-08-21T06:59:37;6.88;;;3.25;;
21943;SDS011;11136;48.778;9.126;2022-08-21T07:02:02;6.55;;;2.83;;
21943;SDS011;11136;48.778;9.126;2022-08-21T07:04:28;5.50;;;2.58;;
21943;SDS011;11136;48.778;9.126;2022-08-21T07:06:54;7.18;;;3.45;;
21943;SDS011;11136;48.778;9.126;2022-08-21T07:09:19;6.95;;;3.30;;
21943;SDS011;11136;48.778;9.126;2022-08-21T07:11:46;6.93;;;3.33;;
21943;SDS011;11136;48.778;9.126;2022-08-21T07:14:15;9.00;;;2.95;;
21943;SDS011;11136;48.778;9.126;2022-08-21T07:16:41;7.97;;;2.85;;
21943;SDS011;11136;48.778;9.126;2022-08-21T07:19:06;4.97;;;2.80;;
21943;SDS011;11136;48.778;9.126;2022-08-21T07:21:32;9.75;;;2.65;;
21943;SDS011;11136;48.778;9.126;2022-08-21T07:23:57;7.03;;;3.30;;
21943;SDS011;11136;48.778;9.126;2022-08-21T07:26:23;5.97;;;2.75;;
21943;SDS011;11136;48.778;9.126;2022-08-21T07:28:49;8.30;;;2.75;;
21943;SDS011;11136;48.778;9.126;2022-08-21T07:31:16;4.22;;;2.70;;
21943;SDS011;11136;48.778;9.126;2022-08-21T07:33:43;7.97;;;3.03;;
21943;SDS011;11136;48.778;9.126;2022-08-21T07:36:09;7.53;;;3.03;;
21943;SDS011;11136;48.778;9.126;2022-08-21T07:38:35;11.93;;;4.53;;
21943;SDS011;11136;48.778;9.126;2022-08-21T07:41:01;6.82;;;3.15;;
21943;SDS011;11136;48.778;9.126;2022-08-21T07:43:38;7.25;;;2.75;;
21943;SDS011;11136;48.778;9.126;2022-08-21T07:46:04;9.20;;;3.55;;
21943;SDS011;11136;48.778;9.126;2022-08-21T07:48:29;3.92;;;2.67;;
21943;SDS011;11136;48.778;9.126;2022-08-21T07:50:55;7.45;;;3.75;;
21943;SDS011;11136;48.778;9.126;2022-08-21T07:53:21;8.18;;;3.45;;
21943;SDS011;11136;48.778;9.126;2022-08-21T07:55:46;7.30;;;3.10;;
21943;SDS011;11136;48.778;9.126;2022-08-21T07:58:12;5.15;;;2.92;;
21943;SDS011;11136;48.778;9.126;2022-08-21T08:00:38;4.80;;;2.47;;
21943;SDS011;11136;48.778;9.126;2022-08-21T08:03:05;6.60;;;3.22;;
21943;SDS011;11136;48.778;9.126;2022-08-21T08:05:31;6.82;;;2.80;;
21943;SDS011;11136;48.778;9.126;2022-08-21T08:07:57;5.32;;;2.65;;
21943;SDS011;11136;48.778;9.126;2022-08-21T08:10:24;5.28;;;2.83;;
21943;SDS011;11136;48.778;9.126;2022-08-21T08:12:50;7.43;;;3.25;;
21943;SDS011;11136;48.778;9.126;2022-08-21T08:15:18;7.70;;;3.10;;
21943;SDS011;11136;48.778;9.126;2022-08-21T08:17:46;7.40;;;3.20;;
21943;SDS011;11136;48.778;9.126;2022-08-21T08:20:13;7.47;;;2.95;;
21943;SDS011;11136;48.778;9.126;2022-08-21T08:22:41;7.95;;;2.45;;
21943;SDS011;11136;48.778;9.126;2022-08-21T08:25:08;6.57;;;3.15;;
21943;SDS011;11136;48.778;9.126;2022-08-21T08:27:34;7.32;;;2.90;;
21943;SDS011;11136;48.778;9.126;2022-08-21T08:30:00;5.30;;;3.25;;
21943;SDS011;11136;48.778;9.126;2022-08-21T08:32:26;9.18;;;2.72;;
21943;SDS011;11136;48.778;9.126;2022-08-21T08:34:52;8.52;;;2.97;;
21943;SDS011;11136;48.778;9.126;2022-08-21T08:37:18;5.70;;;2.72;;
21943;SDS011;11136;48.778;9.126;2022-08-21T08:39:45;7.70;;;2.83;;
21943;SDS011;11136;48.778;9.126;2022-08-21T08:42:12;4.45;;;2.63;;
21943;SDS011;11136;48.778;9.126;2022-08-21T08:44:58;6.65;;;3.03;;
21943;SDS011;11136;48.778;9.126;2022-08-21T08:47:33;6.35;;;3.15;;
21943;SDS011;11136;48.778;9.126;2022-08-21T08:50:19;6.07;;;2.83;;
21943;SDS011;11136;48.778;9.126;2022-08-21T08:52:49;3.30;;;2.63;;
21943;SDS011;11136;48.778;9.126;2022-08-21T08:55:32;7.22;;;2.67;;
21943;SDS011;11136;48.778;9.126;2022-08-21T08:58:00;6.07;;;2.88;;
21943;SDS011;11136;48.778;9.126;2022-08-21T09:00:27;6.35;;;3.17;;
21943;SDS011;11136;48.778;9.126;2022-08-21T09:02:57;3.72;;;2.80;;
21943;SDS011;11136;48.778;9.126;2022-08-21T09:19:04;5.15;;;2.70;;
21943;SDS011;11136;48.778;9.126;2022-08-21T09:29:39;5.47;;;2.92;;
21943;SDS011;11136;48.778;9.126;2022-08-21T09:32:14;6.50;;;2.95;;
21943;SDS011;11136;48.778;9.126;2022-08-21T09:34:53;7.53;;;2.90;;
21943;SDS011;11136;48.778;9.126;2022-08-21T09:37:26;6.43;;;2.78;;
21943;SDS011;11136;48.778;9.126;2022-08-21T09:39:53;8.38;;;3.17;;
21943;SDS011;11136;48.778;9.126;2022-08-21T09:42:23;4.03;;;2.97;;
21943;SDS011;11136;48.778;9.126;2022-08-21T09:47:39;5.80;;;3.13;;
21943;SDS011;11136;48.778;9.126;2022-08-21T09:50:10;8.23;;;3.47;;
21943;SDS011;11136;48.778;9.126;2022-08-21T09:52:46;5.22;;;3.20;;
21943;SDS011;11136;48.778;9.126;2022-08-21T09:55:16;7.30;;;3.60;;
21943;SDS011;11136;48.778;9.126;2022-08-21T09:58:06;5.57;;;3.13;;
21943;SDS011;11136;48.778;9.126;2022-08-21T10:00:33;6.75;;;3.00;;
21943;SDS011;11136;48.778;9.126;2022-08-21T10:03:17;7.28;;;3.15;;
21943;SDS011;11136;48.778;9.126;2022-08-21T10:06:01;5.55;;;2.72;;
21943;SDS011;11136;48.778;9.126;2022-08-21T10:08:34;3.80;;;2.72;;
21943;SDS011;11136;48.778;9.126;2022-08-21T10:11:09;6.32;;;3.50;;
21943;SDS011;11136;48.778;9.126;2022-08-21T10:13:52;6.28;;;3.50;;
21943;SDS011;11136;48.778;9.126;2022-08-21T10:19:42;5.20;;;3.15;;
21943;SDS011;11136;48.778;9.126;2022-08-21T10:25:00;7.88;;;3.28;;
21943;SDS011;11136;48.778;9.126;2022-08-21T10:30:20;5.28;;;3.30;;
21943;SDS011;11136;48.778;9.126;2022-08-21T10:32:57;6.18;;;3.28;;
21943;SDS011;11136;48.778;9.126;2022-08-21T10:47:05;8.60;;;3.47;;
21943;SDS011;11136;48.778;9.126;2022-08-21T10:49:58;8.55;;;3.30;;
21943;SDS011;11136;48.778;9.126;2022-08-21T10:55:16;6.85;;;3.17;;
21943;SDS011;11136;48.778;9.126;2022-08-21T10:57:47;7.85;;;3.28;;
21943;SDS011;11136;48.778;9.126;2022-08-21T11:00:41;6.30;;;3.03;;
21943;SDS011;11136;48.778;9.126;2022-08-21T11:03:13;7.15;;;3.78;;
21943;SDS011;11136;48.778;9.126;2022-08-21T11:06:15;6.20;;;3.47;;
21943;SDS011;11136;48.778;9.126;2022-08-21T11:08:51;5.50;;;3.03;;
21943;SDS011;11136;48.778;9.126;2022-08-21T11:11:29;4.93;;;2.97;;
21943;SDS011;11136;48.778;9.126;2022-08-21T11:14:56;4.65;;;3.10;;
21943;SDS011;11136;48.778;9.126;2022-08-21T11:17:11;8.20;;;3.10;;
21943;SDS011;11136;48.778;9.126;2022-08-21T11:20:03;7.43;;;3.08;;
21943;SDS011;11136;48.778;9.126;2022-08-21T11:25:40;6.47;;;3.03;;
21943;SDS011;11136;48.778;9.126;2022-08-21T11:28:13;11.40;;;4.00;;
21943;SDS011;11136;48.778;9.126;2022-08-21T11:31:00;6.70;;;2.97;;
21943;SDS011;11136;48.778;9.126;2022-08-21T11:41:47;12.07;;;3.65;;
21943;SDS011;11136;48.778;9.126;2022-08-21T11:47:41;11.25;;;3.10;;
21943;SDS011;11136;48.778;9.126;2022-08-21T11:50:26;5.07;;;2.93;;
21943;SDS011;11136;48.778;9.126;2022-08-21T11:52:56;8.77;;;3.53;;
21943;SDS011;11136;48.778;9.126;2022-08-21T11:58:07;8.25;;;3.33;;
21943;SDS011;11136;48.778;9.126;2022-08-21T12:00:56;4.45;;;2.88;;
21943;SDS011;11136;48.778;9.126;2022-08-21T12:03:33;6.43;;;3.40;;
21943;SDS011;11136;48.778;9.126;2022-08-21T12:06:06;5.57;;;2.83;;
21943;SDS011;11136;48.778;9.126;2022-08-21T12:08:36;10.00;;;3.30;;
21943;SDS011;11136;48.778;9.126;2022-08-21T12:11:07;5.80;;;3.10;;
21943;SDS011;11136;48.778;9.126;2022-08-21T12:13:40;6.10;;;3.78;;
21943;SDS011;11136;48.778;9.126;2022-08-21T12:16:28;5.40;;;3.10;;
21943;SDS011;11136;48.778;9.126;2022-08-21T12:19:05;6.43;;;3.40;;
21943;SDS011;11136;48.778;9.126;2022-08-21T12:21:34;5.05;;;2.50;;
21943;SDS011;11136;48.778;9.126;2022-08-21T12:24:20;5.35;;;2.90;;
21943;SDS011;11136;48.778;9.126;2022-08-21T12:26:56;8.75;;;3.78;;
21943;SDS011;11136;48.778;9.126;2022-08-21T12:29:30;8.32;;;2.92;;
21943;SDS011;11136;48.778;9.126;2022-08-21T12:31:59;9.02;;;3.20;;
21943;SDS011;11136;48.778;9.126;2022-08-21T12:34:50;5.82;;;2.75;;
21943;SDS011;11136;48.778;9.126;2022-08-21T12:37:21;4.10;;;2.60;;
21943;SDS011;11136;48.778;9.126;2022-08-21T12:39:52;3.63;;;2.30;;
21943;SDS011;11136;48.778;9.126;2022-08-21T12:42:21;8.05;;;3.20;;
21943;SDS011;11136;48.778;9.126;2022-08-21T12:44:53;4.50;;;2.88;;
21943;SDS011;11136;48.778;9.126;2022-08-21T12:47:31;7.72;;;3.03;;
21943;SDS011;11136;48.778;9.126;2022-08-21T12:52:33;4.43;;;3.08;;
21943;SDS011;11136;48.778;9.126;2022-08-21T12:55:27;6.68;;;2.65;;
21943;SDS011;11136;48.778;9.126;2022-08-21T12:57:54;8.95;;;3.70;;
21943;SDS011;11136;48.778;9.126;2022-08-21T13:00:21;7.07;;;3.35;;
21943;SDS011;11136;48.778;9.126;2022-08-21T13:02:48;7.18;;;3.08;;
21943;SDS011;11136;48.778;9.126;2022-08-21T13:05:19;5.97;;;2.80;;
21943;SDS011;11136;48.778;9.126;2022-08-21T13:07:55;7.68;;;3.40;;
21943;SDS011;11136;48.778;9.126;2022-08-21T13:10:29;5.50;;;3.05;;
21943;SDS011;11136;48.778;9.126;2022-08-21T13:12:57;6.30;;;3.00;;
21943;SDS011;11136;48.778;9.126;2022-08-21T13:15:29;7.93;;;2.88;;
21943;SDS011;11136;48.778;9.126;2022-08-21T13:17:58;4.82;;;2.85;;
21943;SDS011;11136;48.778;9.126;2022-08-21T13:20:31;5.88;;;2.95;;
21943;SDS011;11136;48.778;9.126;2022-08-21T13:25:25;6.22;;;3.25;;
21943;SDS011;11136;48.778;9.126;2022-08-21T13:28:03;4.35;;;2.47;;
21943;SDS011;11136;48.778;9.126;2022-08-21T13:30:31;4.45;;;2.70;;
21943;SDS011;11136;48.778;9.126;2022-08-21T13:32:58;6.32;;;3.20;;
21943;SDS011;11136;48.778;9.126;2022-08-21T13:35:28;4.95;;;3.15;;
21943;SDS011;11136;48.778;9.126;2022-08-21T13:37:56;5.35;;;3.10;;
21943;SDS011;11136;48.778;9.126;2022-08-21T13:40:25;8.82;;;2.97;;
21943;SDS011;11136;48.778;9.126;2022-08-21T13:43:09;3.20;;;2.35;;
21943;SDS011;11136;48.778;9.126;2022-08-21T13:45:42;4.88;;;2.88;;
21943;SDS011;11136;48.778;9.126;2022-08-21T13:48:12;7.18;;;3.10;;
21943;SDS011;11136;48.778;9.126;2022-08-21T13:50:38;4.00;;;3.05;;
21943;SDS011;11136;48.778;9.126;2022-08-21T13:53:07;5.47;;;2.58;;
21943;SDS011;11136;48.778;9.126;2022-08-21T13:55:44;5.32;;;2.63;;
21943;SDS011;11136;48.778;9.126;2022-08-21T13:58:10;3.53;;;2.63;;
21943;SDS011;11136;48.778;9.126;2022-08-21T14:00:46;5.10;;;2.97;;
21943;SDS011;11136;48.778;9.126;2022-08-21T14:03:33;6.40;;;2.95;;
21943;SDS011;11136;48.778;9.126;2022-08-21T14:06:02;5.00;;;2.90;;
21943;SDS011;11136;48.778;9.126;2022-08-21T14:08:37;4.43;;;2.70;;
21943;SDS011;11136;48.778;9.126;2022-08-21T14:11:06;5.90;;;2.97;;
21943;SDS011;11136;48.778;9.126;2022-08-21T14:13:38;5.38;;;2.60;;
21943;SDS011;11136;48.778;9.126;2022-08-21T14:16:17;4.18;;;2.78;;
21943;SDS011;11136;48.778;9.126;2022-08-21T14:18:50;4.50;;;3.05;;
21943;SDS011;11136;48.778;9.126;2022-08-21T14:21:29;8.73;;;3.05;;
21943;SDS011;11136;48.778;9.126;2022-08-21T14:24:04;3.70;;;2.30;;
21943;SDS011;11136;48.778;9.126;2022-08-21T14:26:33;5.32;;;2.80;;
21943;SDS011;11136;48.778;9.126;2022-08-21T14:29:01;4.65;;;2.80;;
21943;SDS011;11136;48.778;9.126;2022-08-21T14:31:30;5.30;;;2.88;;
21943;SDS011;11136;48.778;9.126;2022-08-21T14:33:57;3.95;;;2.55;;
21943;SDS011;11136;48.778;9.126;2022-08-21T14:36:24;4.85;;;2.65;;
21943;SDS011;11136;48.778;9.126;2022-08-21T14:38:49;6.80;;;2.90;;
21943;SDS011;11136;48.778;9.126;2022-08-21T14:41:16;3.65;;;2.53;;
21943;SDS011;11136;48.778;9.126;2022-08-21T14:43:44;4.13;;;2.35;;
21943;SDS011;11136;48.778;9.126;2022-08-21T14:46:12;5.22;;;2.72;;
21943;SDS011;11136;48.778;9.126;2022-08-21T14:48:41;3.38;;;2.72;;
21943;SDS011;11136;48.778;9.126;2022-08-21T14:51:07;4.32;;;2.50;;
21943;SDS011;11136;48.778;9.126;2022-08-21T14:53:33;3.28;;;2.47;;
21943;SDS011;11136;48.778;9.126;2022-08-21T14:55:59;4.30;;;2.70;;
21943;SDS011;11136;48.778;9.126;2022-08-21T14:58:31;6.72;;;2.83;;
21943;SDS011;11136;48.778;9.126;2022-08-21T15:00:58;5.90;;;2.58;;
21943;SDS011;11136;48.778;9.126;2022-08-21T15:03:28;6.47;;;2.63;;
21943;SDS011;11136;48.778;9.126;2022-08-21T15:05:54;4.30;;;2.60;;
21943;SDS011;11136;48.778;9.126;2022-08-21T15:08:19;6.47;;;2.67;;
21943;SDS011;11136;48.778;9.126;2022-08-21T15:10:45;4.72;;;2.60;;
21943;SDS011;11136;48.778;9.126;2022-08-21T15:13:11;4.07;;;2.70;;
21943;SDS011;11136;48.778;9.126;2022-08-21T15:15:39;3.92;;;2.45;;
21943;SDS011;11136;48.778;9.126;2022-08-21T15:18:07;4.57;;;2.53;;
21943;SDS011;11136;48.778;9.126;2022-08-21T15:20:34;3.58;;;2.47;;
21943;SDS011;11136;48.778;9.126;2022-08-21T15:23:00;7.28;;;2.50;;
21943;SDS011;11136;48.778;9.126;2022-08-21T15:25:25;4.00;;;2.33;;
21943;SDS011;11136;48.778;9.126;2022-08-21T15:27:51;6.03;;;2.60;;
21943;SDS011;11136;48.778;9.126;2022-08-21T15:30:17;3.90;;;2.20;;
21943;SDS011;11136;48.778;9.126;2022-08-21T15:32:42;2.92;;;2.20;;
21943;SDS011;11136;48.778;9.126;2022-08-21T15:35:08;4.72;;;3.25;;
21943;SDS011;11136;48.778;9.126;2022-08-21T15:37:34;3.58;;;2.50;;
21943;SDS011;11136;48.778;9.126;2022-08-21T15:40:00;4.13;;;2.53;;
21943;SDS011;11136;48.778;9.126;2022-08-21T15:42:28;3.63;;;2.35;;
21943;SDS011;11136;48.778;9.126;2022-08-21T15:44:54;3.10;;;2.42;;
21943;SDS011;11136;48.778;9.126;2022-08-21T15:47:22;4.60;;;2.83;;
21943;SDS011;11136;48.778;9.126;2022-08-21T15:49:52;7.22;;;3.00;;
21943;SDS011;11136;48.778;9.126;2022-08-21T15:52:19;5.68;;;2.58;;
21943;SDS011;11136;48.778;9.126;2022-08-21T15:54:45;7.88;;;2.58;;
21943;SDS011;11136;48.778;9.126;2022-08-21T15:57:12;5.65;;;2.60;;
21943;SDS011;11136;48.778;9.126;2022-08-21T15:59:40;4.60;;;2.70;;
21943;SDS011;11136;48.778;9.126;2022-08-21T16:02:15;4.43;;;2.15;;
21943;SDS011;11136;48.778;9.126;2022-08-21T16:04:53;7.57;;;2.90;;
21943;SDS011;11136;48.778;9.126;2022-08-21T16:07:20;4.30;;;2.60;;
21943;SDS011;11136;48.778;9.126;2022-08-21T16:09:45;3.28;;;2.13;;